sensor_id;sensor_type;location;lat;lon;timestamp;pressure;altitude;pressure_sealevel;temperature;humidity
44297;BME280;51842;47.450;8.654;2022-08-06T00:02:24;95939.75;;;18.39;96.18
44297;BME280;51842;47.450;8.654;2022-08-06T00:05:01;95940.97;;;18.33;96.48
44297;BME280;51842;47.450;8.654;2022-08-06T00:07:28;95946.66;;;18.32;96.67
44297;BME280;51842;47.450;8.654;2022-08-06T00:09:57;95950.59;;;18.25;97.40
44297;BME280;51842;47.450;8.654;2022-08-06T00:12:38;95954.69;;;18.23;97.57
44297;BME280;51842;47.450;8.654;2022-08-06T00:15:10;95952.31;;;18.21;97.42
44297;BME280;51842;47.450;8.654;2022-08-06T00:17:36;95944.03;;;18.18;97.53
44297;BME280;51842;47.450;8.654;2022-08-06T00:20:08;95950.03;;;18.15;97.27
44297;BME280;51842;47.450;8.654;2022-08-06T00:22:34;95956.50;;;18.14;97.29
44297;BME280;51842;47.450;8.654;2022-08-06T00:25:00;95950.13;;;18.10;97.55
44297;BME280;51842;47.450;8.654;2022-08-06T00:27:32;95953.13;;;18.08;97.79
44297;BME280;51842;47.450;8.654;2022-08-06T00:30:05;95956.13;;;18.07;97.91
44297;BME280;51842;47.450;8.654;2022-08-06T00:32:37;95952.63;;;18.06;98.39
44297;BME280;51842;47.450;8.654;2022-08-06T00:35:06;95951.53;;;18.07;98.58
44297;BME280;51842;47.450;8.654;2022-08-06T00:37:32;95957.72;;;18.08;98.58
44297;BME280;51842;47.450;8.654;2022-08-06T00:39:59;95945.34;;;18.07;98.76
44297;BME280;51842;47.450;8.654;2022-08-06T00:42:28;95943.75;;;18.06;99.04
44297;BME280;51842;47.450;8.654;2022-08-06T00:45:02;95944.84;;;18.04;99.30
44297;BME280;51842;47.450;8.654;2022-08-06T00:47:28;95949.16;;;18.06;99.34
44297;BME280;51842;47.450;8.654;2022-08-06T00:50:04;95951.06;;;18.05;98.99
44297;BME280;51842;47.450;8.654;2022-08-06T00:52:32;95951.06;;;18.05;99.38
44297;BME280;51842;47.450;8.654;2022-08-06T00:54:58;95951.06;;;18.05;99.55
44297;BME280;51842;47.450;8.654;2022-08-06T00:57:33;95945.16;;;18.03;99.74
44297;BME280;51842;47.450;8.654;2022-08-06T00:59:59;95936.75;;;18.04;99.89
44297;BME280;51842;47.450;8.654;2022-08-06T01:02:28;95933.78;;;18.06;99.47
44297;BME280;51842;47.450;8.654;2022-08-06T01:05:01;95941.34;;;18.04;99.49
44297;BME280;51842;47.450;8.654;2022-08-06T01:07:44;95944.03;;;18.04;99.39
44297;BME280;51842;47.450;8.654;2022-08-06T01:10:13;95953.25;;;18.03;99.60
44297;BME280;51842;47.450;8.654;2022-08-06T01:12:54;95948.66;;;18.03;99.54
44297;BME280;51842;47.450;8.654;2022-08-06T01:15:20;95963.22;;;18.02;100.00
44297;BME280;51842;47.450;8.654;2022-08-06T01:18:09;95962.44;;;18.02;99.72
44297;BME280;51842;47.450;8.654;2022-08-06T01:25:01;95952.75;;;18.01;99.72
44297;BME280;51842;47.450;8.654;2022-08-06T01:28:07;95943.06;;;18.00;100.00
44297;BME280;51842;47.450;8.654;2022-08-06T01:31:10;95944.97;;;17.99;100.00
44297;BME280;51842;47.450;8.654;2022-08-06T01:33:52;95943.06;;;18.00;99.92
44297;BME280;51842;47.450;8.654;2022-08-06T01:40:21;95956.81;;;17.98;100.00
44297;BME280;51842;47.450;8.654;2022-08-06T01:42:53;95963.03;;;17.99;100.00
44297;BME280;51842;47.450;8.654;2022-08-06T01:45:29;95962.53;;;17.97;100.00
44297;BME280;51842;47.450;8.654;2022-08-06T01:48:06;95949.34;;;17.95;100.00
44297;BME280;51842;47.450;8.654;2022-08-06T01:50:41;95953.66;;;17.96;100.00
44297;BME280;51842;47.450;8.654;2022-08-06T01:53:14;95954.97;;;17.99;100.00
44297;BME280;51842;47.450;8.654;2022-08-06T01:55:45;95961.94;;;18.00;100.00
44297;BME280;51842;47.450;8.654;2022-08-06T01:58:21;95957.66;;;17.99;100.00
44297;BME280;51842;47.450;8.654;2022-08-06T02:00:51;95956.81;;;17.98;100.00
44297;BME280;51842;47.450;8.654;2022-08-06T02:03:35;95954.97;;;17.99;100.00
44297;BME280;51842;47.450;8.654;2022-08-06T02:06:07;95951.94;;;18.00;100.00
44297;BME280;51842;47.450;8.654;2022-08-06T02:08:39;95955.94;;;18.03;100.00
44297;BME280;51842;47.450;8.654;2022-08-06T02:11:10;95959.75;;;18.02;100.00
44297;BME280;51842;47.450;8.654;2022-08-06T02:13:40;95961.00;;;18.04;100.00
44297;BME280;51842;47.450;8.654;2022-08-06T02:16:10;95961.84;;;18.05;100.00
44297;BME280;51842;47.450;8.654;2022-08-06T02:18:43;95965.00;;;18.07;100.00
44297;BME280;51842;47.450;8.654;2022-08-06T02:21:18;95968.03;;;18.06;100.00
44297;BME280;51842;47.450;8.654;2022-08-06T02:23:47;95959.94;;;18.06;100.00
44297;BME280;51842;47.450;8.654;2022-08-06T02:26:16;95962.31;;;18.07;100.00
44297;BME280;51842;47.450;8.654;2022-08-06T02:28:56;95960.41;;;18.08;100.00
44297;BME280;51842;47.450;8.654;2022-08-06T02:31:23;95955.19;;;18.11;100.00
44297;BME280;51842;47.450;8.654;2022-08-06T02:33:52;95955.72;;;18.13;100.00
44297;BME280;51842;47.450;8.654;2022-08-06T02:36:44;95956.81;;;18.12;100.00
44297;BME280;51842;47.450;8.654;2022-08-06T02:39:40;95956.31;;;18.10;100.00
44297;BME280;51842;47.450;8.654;2022-08-06T02:42:36;95955.34;;;18.06;100.00
44297;BME280;51842;47.450;8.654;2022-08-06T02:45:30;95960.81;;;18.01;100.00
44297;BME280;51842;47.450;8.654;2022-08-06T02:48:28;95964.84;;;17.90;100.00
44297;BME280;51842;47.450;8.654;2022-08-06T02:51:03;95962.25;;;17.85;100.00
44297;BME280;51842;47.450;8.654;2022-08-06T02:54:34;95954.97;;;17.85;100.00
44297;BME280;51842;47.450;8.654;2022-08-06T02:57:16;95952.06;;;17.82;100.00
44297;BME280;51842;47.450;8.654;2022-08-06T02:59:50;95958.84;;;17.79;100.00
44297;BME280;51842;47.450;8.654;2022-08-06T03:02:24;95956.47;;;17.77;100.00
44297;BME280;51842;47.450;8.654;2022-08-06T03:04:56;95961.13;;;17.72;100.00
44297;BME280;51842;47.450;8.654;2022-08-06T03:07:33;95957.75;;;17.66;100.00
44297;BME280;51842;47.450;8.654;2022-08-06T03:10:02;95956.84;;;17.57;100.00
44297;BME280;51842;47.450;8.654;2022-08-06T03:12:36;95964.44;;;17.55;100.00
44297;BME280;51842;47.450;8.654;2022-08-06T03:15:07;95958.56;;;17.53;100.00
44297;BME280;51842;47.450;8.654;2022-08-06T03:17:39;95961.34;;;17.48;100.00
44297;BME280;51842;47.450;8.654;2022-08-06T03:20:08;95963.63;;;17.41;100.00
44297;BME280;51842;47.450;8.654;2022-08-06T03:22:37;95961.94;;;17.31;100.00
44297;BME280;51842;47.450;8.654;2022-08-06T03:25:10;95961.75;;;17.27;99.82
44297;BME280;51842;47.450;8.654;2022-08-06T03:27:46;95971.47;;;17.23;99.92
44297;BME280;51842;47.450;8.654;2022-08-06T03:30:16;95965.63;;;17.21;99.97
44297;BME280;51842;47.450;8.654;2022-08-06T03:32:54;95958.41;;;17.17;100.00
44297;BME280;51842;47.450;8.654;2022-08-06T03:35:26;95961.69;;;17.14;99.35
44297;BME280;51842;47.450;8.654;2022-08-06T03:37:57;95960.19;;;17.07;99.03
44297;BME280;51842;47.450;8.654;2022-08-06T03:40:25;95964.06;;;17.01;99.06
44297;BME280;51842;47.450;8.654;2022-08-06T03:42:59;95966.28;;;16.99;99.31
44297;BME280;51842;47.450;8.654;2022-08-06T03:45:27;95963.66;;;16.94;99.14
44297;BME280;51842;47.450;8.654;2022-08-06T03:48:06;95969.63;;;16.91;98.58
44297;BME280;51842;47.450;8.654;2022-08-06T03:50:43;95960.84;;;16.85;98.62
44297;BME280;51842;47.450;8.654;2022-08-06T03:53:22;95966.22;;;16.85;98.63
44297;BME280;51842;47.450;8.654;2022-08-06T03:56:04;95967.31;;;16.84;98.58
44297;BME280;51842;47.450;8.654;2022-08-06T03:58:39;95970.53;;;16.86;98.43
44297;BME280;51842;47.450;8.654;2022-08-06T04:01:18;95963.44;;;16.77;97.44
44297;BME280;51842;47.450;8.654;2022-08-06T04:03:54;95959.69;;;16.73;97.79
44297;BME280;51842;47.450;8.654;2022-08-06T04:06:30;95970.97;;;16.75;97.56
44297;BME280;51842;47.450;8.654;2022-08-06T04:09:00;95974.50;;;16.70;96.99
44297;BME280;51842;47.450;8.654;2022-08-06T04:11:33;95971.63;;;16.66;97.01
44297;BME280;51842;47.450;8.654;2022-08-06T04:14:08;95985.06;;;16.66;96.63
44297;BME280;51842;47.450;8.654;2022-08-06T04:16:36;95984.25;;;16.66;96.70
44297;BME280;51842;47.450;8.654;2022-08-06T04:19:08;95982.97;;;16.63;96.45
44297;BME280;51842;47.450;8.654;2022-08-06T04:21:36;95994.28;;;16.60;96.30
44297;BME280;51842;47.450;8.654;2022-08-06T04:24:05;95999.91;;;16.64;96.73
44297;BME280;51842;47.450;8.654;2022-08-06T04:26:33;95999.91;;;16.64;96.26
44297;BME280;51842;47.450;8.654;2022-08-06T04:29:02;96005.56;;;16.62;96.19
44297;BME280;51842;47.450;8.654;2022-08-06T04:31:39;96003.41;;;16.64;95.77
44297;BME280;51842;47.450;8.654;2022-08-06T04:34:09;95999.69;;;16.60;95.55
44297;BME280;51842;47.450;8.654;2022-08-06T04:36:37;96001.78;;;16.63;95.79
44297;BME280;51842;47.450;8.654;2022-08-06T04:39:04;96004.19;;;16.65;95.67
44297;BME280;51842;47.450;8.654;2022-08-06T04:41:33;96009.56;;;16.65;95.66
44297;BME280;51842;47.450;8.654;2022-08-06T04:44:00;96015.69;;;16.71;95.61
44297;BME280;51842;47.450;8.654;2022-08-06T04:46:30;96010.88;;;16.68;95.20
44297;BME280;51842;47.450;8.654;2022-08-06T04:49:04;96015.44;;;16.67;95.22
44297;BME280;51842;47.450;8.654;2022-08-06T04:51:33;96018.44;;;16.65;94.67
44297;BME280;51842;47.450;8.654;2022-08-06T04:54:06;96020.34;;;16.65;94.56
44297;BME280;51842;47.450;8.654;2022-08-06T04:56:35;96028.88;;;16.67;94.58
44297;BME280;51842;47.450;8.654;2022-08-06T04:59:05;96025.19;;;16.63;94.38
44297;BME280;51842;47.450;8.654;2022-08-06T05:01:31;96030.00;;;16.66;94.37
44297;BME280;51842;47.450;8.654;2022-08-06T05:03:57;96031.66;;;16.62;93.96
44297;BME280;51842;47.450;8.654;2022-08-06T05:06:55;96036.84;;;16.58;94.13
44297;BME280;51842;47.450;8.654;2022-08-06T05:09:33;96045.63;;;16.64;93.91
44297;BME280;51842;47.450;8.654;2022-08-06T05:15:33;96049.41;;;16.63;93.66
44297;BME280;51842;47.450;8.654;2022-08-06T05:18:28;96056.16;;;16.60;93.72
44297;BME280;51842;47.450;8.654;2022-08-06T05:20:58;96058.63;;;16.57;93.49
44297;BME280;51842;47.450;8.654;2022-08-06T05:23:43;96062.63;;;16.59;93.95
44297;BME280;51842;47.450;8.654;2022-08-06T05:26:11;96061.31;;;16.57;93.17
44297;BME280;51842;47.450;8.654;2022-08-06T05:28:42;96054.56;;;16.59;93.20
44297;BME280;51842;47.450;8.654;2022-08-06T05:31:11;96068.31;;;16.58;92.75
44297;BME280;51842;47.450;8.654;2022-08-06T05:33:41;96062.47;;;16.51;92.32
44297;BME280;51842;47.450;8.654;2022-08-06T05:36:10;96060.94;;;16.45;92.80
44297;BME280;51842;47.450;8.654;2022-08-06T05:38:39;96067.94;;;16.46;92.11
44297;BME280;51842;47.450;8.654;2022-08-06T05:41:09;96064.31;;;16.36;90.85
44297;BME280;51842;47.450;8.654;2022-08-06T05:43:39;96062.78;;;16.30;89.74
44297;BME280;51842;47.450;8.654;2022-08-06T05:46:27;96072.22;;;16.28;89.54
44297;BME280;51842;47.450;8.654;2022-08-06T05:49:07;96063.19;;;16.18;88.94
44297;BME280;51842;47.450;8.654;2022-08-06T05:51:51;96068.19;;;16.25;89.33
44297;BME280;51842;47.450;8.654;2022-08-06T05:58:04;96066.28;;;16.07;87.21
44297;BME280;51842;47.450;8.654;2022-08-06T06:00:41;96076.75;;;16.08;86.85
44297;BME280;51842;47.450;8.654;2022-08-06T06:03:12;96074.63;;;16.05;86.82
44297;BME280;51842;47.450;8.654;2022-08-06T06:05:58;96086.75;;;16.03;86.00
44297;BME280;51842;47.450;8.654;2022-08-06T06:08:26;96081.06;;;16.04;86.08
44297;BME280;51842;47.450;8.654;2022-08-06T06:10:53;96079.72;;;16.07;85.56
44297;BME280;51842;47.450;8.654;2022-08-06T06:13:26;96086.97;;;16.06;85.78
44297;BME280;51842;47.450;8.654;2022-08-06T06:16:29;96091.78;;;16.09;86.27
44297;BME280;51842;47.450;8.654;2022-08-06T06:19:20;96091.34;;;16.02;85.77
44297;BME280;51842;47.450;8.654;2022-08-06T06:25:30;96083.06;;;15.99;85.13
44297;BME280;51842;47.450;8.654;2022-08-06T06:31:46;96101.16;;;16.12;85.31
44297;BME280;51842;47.450;8.654;2022-08-06T06:35:02;96105.97;;;16.15;85.06
44297;BME280;51842;47.450;8.654;2022-08-06T06:47:57;96104.59;;;16.17;84.40
44297;BME280;51842;47.450;8.654;2022-08-06T06:50:32;96105.38;;;16.18;84.39
44297;BME280;51842;47.450;8.654;2022-08-06T06:53:09;96106.97;;;16.19;84.32
44297;BME280;51842;47.450;8.654;2022-08-06T06:55:50;96111.50;;;16.24;84.08
44297;BME280;51842;47.450;8.654;2022-08-06T06:58:41;96111.94;;;16.31;83.62
44297;BME280;51842;47.450;8.654;2022-08-06T07:01:12;96116.19;;;16.37;84.05
44297;BME280;51842;47.450;8.654;2022-08-06T07:03:49;96121.78;;;16.40;83.70
44297;BME280;51842;47.450;8.654;2022-08-06T07:06:18;96118.94;;;16.51;83.53
44297;BME280;51842;47.450;8.654;2022-08-06T07:08:53;96120.25;;;16.53;82.95
44297;BME280;51842;47.450;8.654;2022-08-06T07:11:25;96117.88;;;16.52;82.76
44297;BME280;51842;47.450;8.654;2022-08-06T07:13:56;96117.00;;;16.56;82.81
44297;BME280;51842;47.450;8.654;2022-08-06T07:16:30;96124.06;;;16.52;83.25
44297;BME280;51842;47.450;8.654;2022-08-06T07:19:09;96121.00;;;16.59;82.64
44297;BME280;51842;47.450;8.654;2022-08-06T07:21:40;96125.06;;;16.56;83.11
44297;BME280;51842;47.450;8.654;2022-08-06T07:24:11;96123.75;;;16.54;83.29
44297;BME280;51842;47.450;8.654;2022-08-06T07:26:38;96128.63;;;16.52;83.30
44297;BME280;51842;47.450;8.654;2022-08-06T07:29:07;96137.19;;;16.54;83.67
44297;BME280;51842;47.450;8.654;2022-08-06T07:31:37;96136.13;;;16.55;83.16
44297;BME280;51842;47.450;8.654;2022-08-06T07:34:04;96132.13;;;16.52;83.73
44297;BME280;51842;47.450;8.654;2022-08-06T07:36:51;96148.59;;;16.46;83.83
44297;BME280;51842;47.450;8.654;2022-08-06T07:39:27;96135.88;;;16.51;83.54
44297;BME280;51842;47.450;8.654;2022-08-06T07:42:00;96144.09;;;16.60;83.54
44297;BME280;51842;47.450;8.654;2022-08-06T07:44:30;96146.88;;;16.55;83.61
44297;BME280;51842;47.450;8.654;2022-08-06T07:47:02;96154.44;;;16.53;83.69
44297;BME280;51842;47.450;8.654;2022-08-06T07:49:43;96147.28;;;16.43;84.30
44297;BME280;51842;47.450;8.654;2022-08-06T07:52:18;96152.94;;;16.41;84.01
44297;BME280;51842;47.450;8.654;2022-08-06T07:54:46;96151.91;;;16.37;84.76
44297;BME280;51842;47.450;8.654;2022-08-06T07:57:14;96156.56;;;16.32;85.56
44297;BME280;51842;47.450;8.654;2022-08-06T07:59:42;96155.97;;;16.35;85.34
44297;BME280;51842;47.450;8.654;2022-08-06T08:02:28;96160.28;;;16.36;85.55
44297;BME280;51842;47.450;8.654;2022-08-06T08:04:59;96159.31;;;16.27;86.42
44297;BME280;51842;47.450;8.654;2022-08-06T08:07:50;96163.94;;;16.21;86.50
44297;BME280;51842;47.450;8.654;2022-08-06T08:10:20;96160.13;;;16.27;86.70
44297;BME280;51842;47.450;8.654;2022-08-06T08:12:52;96160.59;;;16.29;87.23
44297;BME280;51842;47.450;8.654;2022-08-06T08:15:20;96168.56;;;16.39;87.06
44297;BME280;51842;47.450;8.654;2022-08-06T08:17:49;96169.41;;;16.35;86.55
44297;BME280;51842;47.450;8.654;2022-08-06T08:20:15;96168.75;;;16.24;87.36
44297;BME280;51842;47.450;8.654;2022-08-06T08:22:55;96177.09;;;16.23;88.60
44297;BME280;51842;47.450;8.654;2022-08-06T08:25:24;96176.72;;;16.29;88.21
44297;BME280;51842;47.450;8.654;2022-08-06T08:27:53;96183.03;;;16.19;88.73
44297;BME280;51842;47.450;8.654;2022-08-06T08:30:22;96182.19;;;16.24;88.70
44297;BME280;51842;47.450;8.654;2022-08-06T08:33:06;96177.84;;;16.28;88.63
44297;BME280;51842;47.450;8.654;2022-08-06T08:35:36;96188.34;;;16.25;88.32
44297;BME280;51842;47.450;8.654;2022-08-06T08:38:08;96195.06;;;16.27;88.83
44297;BME280;51842;47.450;8.654;2022-08-06T08:40:36;96187.00;;;16.27;89.04
44297;BME280;51842;47.450;8.654;2022-08-06T08:43:05;96188.06;;;16.26;88.57
44297;BME280;51842;47.450;8.654;2022-08-06T08:45:37;96188.94;;;16.22;88.99
44297;BME280;51842;47.450;8.654;2022-08-06T08:48:11;96190.88;;;16.16;89.47
44297;BME280;51842;47.450;8.654;2022-08-06T08:50:40;96189.53;;;16.13;89.48
44297;BME280;51842;47.450;8.654;2022-08-06T08:53:44;96187.41;;;16.10;89.60
44297;BME280;51842;47.450;8.654;2022-08-06T08:56:12;96187.13;;;16.17;89.61
44297;BME280;51842;47.450;8.654;2022-08-06T08:58:40;96192.00;;;16.10;89.17
44297;BME280;51842;47.450;8.654;2022-08-06T09:01:08;96194.47;;;16.06;89.78
44297;BME280;51842;47.450;8.654;2022-08-06T09:03:38;96198.75;;;16.07;89.53
44297;BME280;51842;47.450;8.654;2022-08-06T09:06:06;96192.75;;;16.15;89.68
44297;BME280;51842;47.450;8.654;2022-08-06T09:08:33;96195.44;;;16.15;89.05
44297;BME280;51842;47.450;8.654;2022-08-06T09:10:59;96197.59;;;16.13;87.81
44297;BME280;51842;47.450;8.654;2022-08-06T09:13:30;96189.63;;;16.08;88.67
44297;BME280;51842;47.450;8.654;2022-08-06T09:15:57;96201.38;;;16.12;88.42
44297;BME280;51842;47.450;8.654;2022-08-06T09:18:25;96209.22;;;16.09;88.83
44297;BME280;51842;47.450;8.654;2022-08-06T09:20:52;96204.53;;;16.19;88.44
44297;BME280;51842;47.450;8.654;2022-08-06T09:23:18;96209.88;;;16.25;87.47
44297;BME280;51842;47.450;8.654;2022-08-06T09:25:55;96214.56;;;16.38;87.13
44297;BME280;51842;47.450;8.654;2022-08-06T09:28:44;96216.44;;;16.37;86.13
44297;BME280;51842;47.450;8.654;2022-08-06T09:31:19;96218.97;;;16.53;86.18
44297;BME280;51842;47.450;8.654;2022-08-06T09:36:28;96219.69;;;16.82;83.98
44297;BME280;51842;47.450;8.654;2022-08-06T09:39:05;96227.47;;;17.08;82.92
44297;BME280;51842;47.450;8.654;2022-08-06T09:41:31;96222.34;;;17.25;81.34
44297;BME280;51842;47.450;8.654;2022-08-06T09:43:58;96225.41;;;17.38;80.96
44297;BME280;51842;47.450;8.654;2022-08-06T09:46:45;96220.59;;;17.53;79.58
44297;BME280;51842;47.450;8.654;2022-08-06T09:49:14;96217.72;;;17.64;78.78
44297;BME280;51842;47.450;8.654;2022-08-06T09:51:42;96228.38;;;17.74;78.87
44297;BME280;51842;47.450;8.654;2022-08-06T09:54:12;96218.78;;;18.00;78.80
44297;BME280;51842;47.450;8.654;2022-08-06T09:56:45;96217.47;;;17.98;77.37
44297;BME280;51842;47.450;8.654;2022-08-06T09:59:13;96219.97;;;18.08;78.03
44297;BME280;51842;47.450;8.654;2022-08-06T10:01:47;96210.59;;;18.06;77.84
44297;BME280;51842;47.450;8.654;2022-08-06T10:04:36;96214.50;;;17.99;77.27
44297;BME280;51842;47.450;8.654;2022-08-06T10:07:05;96222.47;;;18.04;77.28
44297;BME280;51842;47.450;8.654;2022-08-06T10:09:34;96221.72;;;17.85;76.42
44297;BME280;51842;47.450;8.654;2022-08-06T10:12:19;96214.66;;;17.70;77.66
44297;BME280;51842;47.450;8.654;2022-08-06T10:14:46;96224.25;;;17.76;77.78
44297;BME280;51842;47.450;8.654;2022-08-06T10:17:17;96223.22;;;17.77;77.61
44297;BME280;51842;47.450;8.654;2022-08-06T10:20:11;96229.94;;;17.94;77.24
44297;BME280;51842;47.450;8.654;2022-08-06T10:22:54;96222.72;;;17.89;77.49
44297;BME280;51842;47.450;8.654;2022-08-06T10:25:24;96229.81;;;17.85;76.63
44297;BME280;51842;47.450;8.654;2022-08-06T10:27:54;96231.31;;;17.91;76.83
44297;BME280;51842;47.450;8.654;2022-08-06T10:30:21;96228.06;;;17.75;77.12
44297;BME280;51842;47.450;8.654;2022-08-06T10:32:59;96230.91;;;17.84;77.38
44297;BME280;51842;47.450;8.654;2022-08-06T10:35:28;96227.50;;;17.78;76.45
44297;BME280;51842;47.450;8.654;2022-08-06T10:38:08;96235.00;;;17.82;78.13
44297;BME280;51842;47.450;8.654;2022-08-06T10:40:41;96227.31;;;17.89;77.07
44297;BME280;51842;47.450;8.654;2022-08-06T10:43:08;96232.50;;;17.85;77.62
44297;BME280;51842;47.450;8.654;2022-08-06T10:45:37;96231.41;;;17.86;77.55
44297;BME280;51842;47.450;8.654;2022-08-06T10:48:05;96226.94;;;17.76;77.01
44297;BME280;51842;47.450;8.654;2022-08-06T10:50:39;96230.31;;;17.87;77.09
44297;BME280;51842;47.450;8.654;2022-08-06T10:53:08;96231.84;;;17.93;76.93
44297;BME280;51842;47.450;8.654;2022-08-06T10:55:34;96223.94;;;17.83;77.91
44297;BME280;51842;47.450;8.654;2022-08-06T10:58:02;96228.22;;;17.65;78.39
44297;BME280;51842;47.450;8.654;2022-08-06T11:00:33;96220.22;;;17.60;78.79
44297;BME280;51842;47.450;8.654;2022-08-06T11:15:50;96210.53;;;17.78;77.88
44297;BME280;51842;47.450;8.654;2022-08-06T11:18:17;96217.50;;;17.79;78.54
44297;BME280;51842;47.450;8.654;2022-08-06T11:20:47;96212.06;;;17.98;77.51
44297;BME280;51842;47.450;8.654;2022-08-06T11:25:51;96212.13;;;18.39;75.91
44297;BME280;51842;47.450;8.654;2022-08-06T11:31:34;96205.75;;;18.21;76.65
44297;BME280;51842;47.450;8.654;2022-08-06T11:34:12;96202.94;;;18.26;76.91
44297;BME280;51842;47.450;8.654;2022-08-06T11:36:58;96208.91;;;18.23;76.46
44297;BME280;51842;47.450;8.654;2022-08-06T11:39:29;96202.22;;;18.07;76.40
44297;BME280;51842;47.450;8.654;2022-08-06T11:42:01;96203.25;;;18.25;76.13
44297;BME280;51842;47.450;8.654;2022-08-06T11:44:34;96200.34;;;18.21;76.57
44297;BME280;51842;47.450;8.654;2022-08-06T11:52:06;96207.13;;;18.05;76.82
44297;BME280;51842;47.450;8.654;2022-08-06T12:02:50;96204.91;;;18.07;74.83
44297;BME280;51842;47.450;8.654;2022-08-06T12:07:46;96208.59;;;17.97;75.71
44297;BME280;51842;47.450;8.654;2022-08-06T12:10:15;96204.44;;;18.05;75.61
44297;BME280;51842;47.450;8.654;2022-08-06T12:12:59;96198.41;;;17.94;76.34
44297;BME280;51842;47.450;8.654;2022-08-06T12:18:00;96211.63;;;18.51;76.13
44297;BME280;51842;47.450;8.654;2022-08-06T12:20:48;96198.03;;;18.42;74.98
44297;BME280;51842;47.450;8.654;2022-08-06T12:23:23;96208.44;;;18.35;75.48
44297;BME280;51842;47.450;8.654;2022-08-06T12:25:55;96199.63;;;18.30;74.18
44297;BME280;51842;47.450;8.654;2022-08-06T12:28:21;96205.22;;;18.19;75.18
44297;BME280;51842;47.450;8.654;2022-08-06T12:31:01;96202.13;;;18.26;76.19
44297;BME280;51842;47.450;8.654;2022-08-06T12:33:48;96205.25;;;18.47;75.36
44297;BME280;51842;47.450;8.654;2022-08-06T12:36:26;96198.34;;;18.68;72.09
44297;BME280;51842;47.450;8.654;2022-08-06T12:38:57;96198.88;;;18.84;72.82
44297;BME280;51842;47.450;8.654;2022-08-06T12:41:36;96188.16;;;18.93;71.52
44297;BME280;51842;47.450;8.654;2022-08-06T12:44:06;96170.66;;;18.90;71.31
44297;BME280;51842;47.450;8.654;2022-08-06T12:46:32;96182.25;;;18.91;71.29
44297;BME280;51842;47.450;8.654;2022-08-06T12:48:59;96180.44;;;19.00;71.77
44297;BME280;51842;47.450;8.654;2022-08-06T12:51:35;96193.56;;;19.29;70.50
44297;BME280;51842;47.450;8.654;2022-08-06T12:54:06;96180.81;;;19.44;70.37
44297;BME280;51842;47.450;8.654;2022-08-06T12:56:38;96185.69;;;19.78;70.14
44297;BME280;51842;47.450;8.654;2022-08-06T12:59:10;96187.28;;;19.79;68.38
44297;BME280;51842;47.450;8.654;2022-08-06T13:01:38;96193.13;;;19.72;68.78
44297;BME280;51842;47.450;8.654;2022-08-06T13:04:10;96193.13;;;19.72;68.15
44297;BME280;51842;47.450;8.654;2022-08-06T13:06:39;96198.84;;;19.57;68.69
44297;BME280;51842;47.450;8.654;2022-08-06T13:09:08;96201.72;;;19.74;68.34
44297;BME280;51842;47.450;8.654;2022-08-06T13:11:37;96203.00;;;19.77;69.00
44297;BME280;51842;47.450;8.654;2022-08-06T13:14:13;96197.81;;;19.89;67.52
44297;BME280;51842;47.450;8.654;2022-08-06T13:16:49;96204.63;;;19.86;68.01
44297;BME280;51842;47.450;8.654;2022-08-06T13:19:18;96193.88;;;19.28;69.65
44297;BME280;51842;47.450;8.654;2022-08-06T13:22:01;96193.97;;;19.59;69.07
44297;BME280;51842;47.450;8.654;2022-08-06T13:24:31;96191.66;;;19.52;68.94
44297;BME280;51842;47.450;8.654;2022-08-06T13:27:00;96187.69;;;19.50;70.22
44297;BME280;51842;47.450;8.654;2022-08-06T13:29:27;96191.25;;;19.59;70.61
44297;BME280;51842;47.450;8.654;2022-08-06T13:32:10;96188.22;;;19.60;68.93
44297;BME280;51842;47.450;8.654;2022-08-06T13:35:09;96177.03;;;19.98;67.82
44297;BME280;51842;47.450;8.654;2022-08-06T13:37:52;96178.00;;;20.02;68.12
44297;BME280;51842;47.450;8.654;2022-08-06T13:40:34;96174.03;;;20.00;67.63
44297;BME280;51842;47.450;8.654;2022-08-06T13:43:00;96171.75;;;20.24;67.68
44297;BME280;51842;47.450;8.654;2022-08-06T13:45:29;96173.19;;;20.22;66.60
44297;BME280;51842;47.450;8.654;2022-08-06T13:48:11;96177.59;;;20.18;66.35
44297;BME280;51842;47.450;8.654;2022-08-06T13:50:43;96164.19;;;20.04;66.97
44297;BME280;51842;47.450;8.654;2022-08-06T13:53:12;96171.00;;;20.01;66.81
44297;BME280;51842;47.450;8.654;2022-08-06T13:55:44;96171.34;;;20.08;67.90
44297;BME280;51842;47.450;8.654;2022-08-06T13:58:10;96166.63;;;20.14;67.31
44297;BME280;51842;47.450;8.654;2022-08-06T14:00:37;96172.03;;;19.83;66.80
44297;BME280;51842;47.450;8.654;2022-08-06T14:03:11;96165.88;;;19.91;67.88
44297;BME280;51842;47.450;8.654;2022-08-06T14:05:37;96168.97;;;20.07;66.61
44297;BME280;51842;47.450;8.654;2022-08-06T14:08:05;96170.44;;;20.13;66.53
44297;BME280;51842;47.450;8.654;2022-08-06T14:10:34;96166.66;;;20.23;64.89
44297;BME280;51842;47.450;8.654;2022-08-06T14:13:00;96169.66;;;20.13;66.42
44297;BME280;51842;47.450;8.654;2022-08-06T14:15:48;96167.50;;;19.70;67.46
44297;BME280;51842;47.450;8.654;2022-08-06T14:18:21;96160.38;;;19.74;68.04
44297;BME280;51842;47.450;8.654;2022-08-06T14:20:50;96174.53;;;19.57;68.47
44297;BME280;51842;47.450;8.654;2022-08-06T14:23:18;96172.09;;;19.69;67.18
44297;BME280;51842;47.450;8.654;2022-08-06T14:25:45;96175.31;;;19.71;68.40
44297;BME280;51842;47.450;8.654;2022-08-06T14:28:10;96175.66;;;19.78;68.63
44297;BME280;51842;47.450;8.654;2022-08-06T14:30:36;96162.28;;;19.73;67.90
44297;BME280;51842;47.450;8.654;2022-08-06T14:33:05;96171.53;;;19.58;68.49
44297;BME280;51842;47.450;8.654;2022-08-06T14:35:36;96170.91;;;19.61;68.04
44297;BME280;51842;47.450;8.654;2022-08-06T14:38:07;96174.03;;;19.69;68.54
44297;BME280;51842;47.450;8.654;2022-08-06T14:40:33;96163.50;;;19.67;68.35
44297;BME280;51842;47.450;8.654;2022-08-06T14:43:18;96171.03;;;19.34;68.98
44297;BME280;51842;47.450;8.654;2022-08-06T14:46:02;96171.16;;;19.29;69.29
44297;BME280;51842;47.450;8.654;2022-08-06T14:48:28;96160.34;;;19.29;70.34